Time;durP1;ratioP1;P1;durP2;ratioP2;P2;SDS_P1;SDS_P2;PMS_P1;PMS_P2;Temp;Humidity;BMP_temperature;BMP_pressure;BME280_temperature;BME280_humidity;BME280_pressure;Samples;Min_cycle;Max_cycle;Signal;HPM_P1;HPM_P2
2021/06/21 00:00:08;;;;;;;2.67;1.30;;;;;;;20.35;65.15;100258.42;1710623;82;21400;-74
2021/06/21 00:02:37;;;;;;;5.33;1.62;;;;;;;20.34;65.20;100264.19;1716352;82;21049;-72
2021/06/21 00:05:06;;;;;;;2.90;1.27;;;;;;;20.32;65.14;100261.00;1713484;82;21092;-73
2021/06/21 00:07:33;;;;;;;3.97;1.30;;;;;;;20.31;65.22;100261.57;1712086;83;21546;-73
2021/06/21 00:09:59;;;;;;;5.77;1.50;;;;;;;20.31;65.44;100265.64;1715183;82;21056;-73
2021/06/21 00:12:27;;;;;;;2.57;1.30;;;;;;;20.27;65.57;100258.47;1712352;82;21087;-73
2021/06/21 00:14:55;;;;;;;3.97;1.53;;;;;;;20.25;65.52;100256.10;1715114;82;21037;-74
2021/06/21 00:17:21;;;;;;;5.57;1.80;;;;;;;20.23;65.55;100261.05;1714244;83;21174;-73
2021/06/21 00:19:48;;;;;;;3.60;1.80;;;;;;;20.21;65.57;100258.45;1714219;82;21071;-73
2021/06/21 00:22:18;;;;;;;2.57;1.30;;;;;;;20.19;66.05;100259.33;1707243;82;21028;-73
2021/06/21 00:24:45;;;;;;;4.47;1.70;;;;;;;20.13;66.04;100250.59;1722703;81;21064;-73
2021/06/21 00:27:13;;;;;;;2.53;1.27;;;;;;;20.08;66.42;100255.66;1723904;81;21108;-73
2021/06/21 00:29:42;;;;;;;3.23;1.30;;;;;;;20.04;66.34;100259.33;1714523;81;21056;-73
2021/06/21 00:32:10;;;;;;;3.87;1.30;;;;;;;20.01;66.44;100258.66;1707568;82;21068;-73
2021/06/21 00:34:37;;;;;;;3.87;1.47;;;;;;;19.99;66.57;100263.03;1687011;83;21028;-74
2021/06/21 00:37:04;;;;;;;4.87;1.40;;;;;;;19.99;66.36;100267.09;1714889;82;21571;-73
2021/06/21 00:39:31;;;;;;;4.83;1.50;;;;;;;19.99;66.49;100268.45;1720840;82;21174;-74
2021/06/21 00:41:58;;;;;;;2.73;1.33;;;;;;;19.99;66.79;100269.02;1718210;81;21137;-74
2021/06/21 00:44:25;;;;;;;2.50;1.37;;;;;;;19.97;67.09;100273.39;1715397;82;21972;-73
2021/06/21 00:46:52;;;;;;;1.67;1.20;;;;;;;19.94;66.83;100265.95;1712248;82;21047;-73
2021/06/21 00:49:18;;;;;;;2.60;1.30;;;;;;;19.95;66.83;100258.60;1715863;82;21118;-74
2021/06/21 00:51:46;;;;;;;1.83;1.20;;;;;;;19.94;66.99;100261.88;1710283;83;21190;-73
2021/06/21 00:54:12;;;;;;;4.07;1.67;;;;;;;19.91;67.29;100268.74;1703044;82;21636;-74
2021/06/21 00:56:40;;;;;;;3.93;1.40;;;;;;;19.88;67.28;100264.53;1711313;82;21145;-72
2021/06/21 00:59:06;;;;;;;2.70;1.20;;;;;;;19.87;67.32;100264.28;1715630;83;21064;-73
2021/06/21 01:01:33;;;;;;;2.27;1.27;;;;;;;19.85;67.49;100266.54;1715048;82;21064;-73
2021/06/21 01:04:00;;;;;;;3.67;1.47;;;;;;;19.84;67.48;100264.39;1698337;82;21930;-73
2021/06/21 01:06:28;;;;;;;4.10;1.50;;;;;;;19.83;67.81;100261.43;1710255;83;21088;-73
2021/06/21 01:08:54;;;;;;;2.23;1.20;;;;;;;19.79;67.65;100256.44;1716196;82;21891;-73
2021/06/21 01:11:23;;;;;;;3.47;1.47;;;;;;;19.78;67.73;100250.79;1711436;81;21044;-73
2021/06/21 01:14:14;;;;;;;3.00;1.40;;;;;;;19.76;67.66;100248.16;1709815;83;21060;-73
2021/06/21 01:16:46;;;;;;;2.23;1.37;;;;;;;19.74;67.84;100247.12;1712551;82;21120;-73
2021/06/21 01:19:36;;;;;;;5.77;1.70;;;;;;;19.72;67.96;100252.09;1713801;83;21590;-73
2021/06/21 01:22:41;;;;;;;3.93;1.80;;;;;;;19.70;67.90;100248.90;1706457;82;21122;-73
2021/06/21 01:25:22;;;;;;;2.90;1.10;;;;;;;19.67;67.85;100250.34;1714031;83;21622;-73
2021/06/21 01:28:00;;;;;;;5.33;1.40;;;;;;;19.66;67.94;100246.05;1712579;82;21127;-72
2021/06/21 01:30:38;;;;;;;4.27;1.40;;;;;;;19.66;67.82;100235.77;1714832;81;21044;-73
2021/06/21 01:33:05;;;;;;;3.47;1.40;;;;;;;19.64;67.97;100237.47;1708693;83;21024;-72
2021/06/21 01:35:37;;;;;;;2.03;1.30;;;;;;;19.62;68.02;100236.17;1721463;82;21100;-73
2021/06/21 01:38:23;;;;;;;2.63;1.30;;;;;;;19.61;68.23;100242.15;1710073;82;21012;-73
2021/06/21 01:40:53;;;;;;;2.87;1.27;;;;;;;19.58;68.39;100236.02;1699275;82;21095;-73
2021/06/21 01:43:25;;;;;;;4.07;1.30;;;;;;;19.57;68.26;100237.13;1676578;83;21074;-74
2021/06/21 01:45:52;;;;;;;2.13;1.37;;;;;;;19.55;68.25;100230.46;1676986;83;21056;-73
2021/06/21 01:48:23;;;;;;;5.20;1.40;;;;;;;19.55;68.35;100235.88;1679477;84;21142;-73
2021/06/21 01:50:54;;;;;;;2.20;1.30;;;;;;;19.52;68.28;100233.82;1686263;83;21044;-74
2021/06/21 01:53:22;;;;;;;1.67;1.30;;;;;;;19.52;68.29;100229.76;1679205;83;21601;-74
2021/06/21 01:56:06;;;;;;;2.60;1.23;;;;;;;19.52;68.26;100232.47;1681946;83;21092;-73
2021/06/21 01:58:35;;;;;;;2.17;1.30;;;;;;;19.51;68.24;100228.14;1648812;84;21094;-74
2021/06/21 02:01:03;;;;;;;2.87;1.20;;;;;;;19.49;68.18;100225.78;1643727;85;21876;-73
2021/06/21 02:03:29;;;;;;;4.33;1.37;;;;;;;19.51;68.36;100231.64;1630601;86;21058;-73
2021/06/21 02:05:56;;;;;;;2.57;1.30;;;;;;;19.51;68.23;100230.29;1647502;84;21151;-74
2021/06/21 02:08:23;;;;;;;4.03;1.40;;;;;;;19.49;68.12;100224.42;1687928;83;21052;-73
2021/06/21 02:10:54;;;;;;;4.80;1.33;;;;;;;19.50;68.05;100229.27;1671286;83;21055;-73
2021/06/21 02:13:22;;;;;;;4.43;1.60;;;;;;;19.52;68.17;100229.19;1683209;83;21511;-72
2021/06/21 02:15:49;;;;;;;2.67;1.37;;;;;;;19.52;68.17;100232.47;1666816;84;21134;-73
2021/06/21 02:18:19;;;;;;;3.50;1.53;;;;;;;19.50;67.88;100234.69;1680097;83;21126;-74
2021/06/21 02:20:48;;;;;;;3.73;1.27;;;;;;;19.50;67.72;100230.63;1687995;83;21498;-74
2021/06/21 02:23:16;;;;;;;3.63;1.53;;;;;;;19.50;67.86;100236.05;1682868;83;21006;-73
2021/06/21 02:25:44;;;;;;;3.33;1.50;;;;;;;19.48;67.97;100233.67;1683692;83;21962;-73
2021/06/21 02:28:12;;;;;;;2.90;1.37;;;;;;;19.48;68.10;100230.97;1677562;83;21070;-72
2021/06/21 02:30:39;;;;;;;2.17;1.50;;;;;;;19.48;68.20;100230.97;1659800;84;21139;-73
2021/06/21 02:33:06;;;;;;;3.37;1.50;;;;;;;19.48;68.15;100234.21;1675198;83;21147;-73
2021/06/21 02:35:32;;;;;;;2.07;1.30;;;;;;;19.49;68.10;100232.55;1646026;85;21078;-74
2021/06/21 02:37:59;;;;;;;2.57;1.40;;;;;;;19.50;68.11;100230.63;1661392;85;21126;-73
2021/06/21 02:40:25;;;;;;;6.47;1.50;;;;;;;19.52;67.86;100233.82;1658883;85;21092;-73
2021/06/21 02:42:52;;;;;;;2.60;1.40;;;;;;;19.54;67.84;100228.29;1649140;85;21119;-73
2021/06/21 02:45:19;;;;;;;3.13;1.60;;;;;;;19.56;67.78;100231.48;1640637;85;21545;-72
2021/06/21 02:47:46;;;;;;;3.47;1.30;;;;;;;19.61;67.73;100238.62;1649185;85;21147;-73
2021/06/21 02:50:13;;;;;;;2.30;1.30;;;;;;;19.64;67.39;100244.77;1626421;85;21132;-72
2021/06/21 02:53:02;;;;;;;2.87;1.47;;;;;;;19.67;67.24;100248.19;1631753;86;21171;-72
2021/06/21 02:55:34;;;;;;;3.07;1.37;;;;;;;19.72;66.92;100239.89;1645501;85;21115;-72
2021/06/21 02:58:27;;;;;;;3.53;1.50;;;;;;;19.77;67.06;100235.63;1619308;84;21030;-73
2021/06/21 03:00:55;;;;;;;3.83;1.37;;;;;;;19.82;67.02;100240.87;1655730;84;21086;-73
2021/06/21 03:03:24;;;;;;;2.70;1.50;;;;;;;19.85;66.73;100232.66;1653256;85;21202;-72
2021/06/21 03:05:52;;;;;;;3.63;1.60;;;;;;;19.91;67.26;100228.65;1640090;85;21123;-72
2021/06/21 03:08:19;;;;;;;2.63;1.50;;;;;;;19.96;67.09;100228.44;1644505;85;21001;-74
2021/06/21 03:10:46;;;;;;;7.00;1.63;;;;;;;20.04;66.95;100225.44;1641656;85;21146;-74
2021/06/21 03:13:13;;;;;;;2.70;1.20;;;;;;;20.09;66.59;100221.20;1649118;85;21070;-73
2021/06/21 03:15:39;;;;;;;4.50;1.70;;;;;;;20.17;66.47;100224.42;1648539;85;21782;-72
2021/06/21 03:18:08;;;;;;;4.63;1.83;;;;;;;20.25;66.63;100230.34;1648195;85;21056;-72
2021/06/21 03:20:36;;;;;;;2.97;1.60;;;;;;;20.33;66.58;100232.18;1646352;85;21526;-72
2021/06/21 03:23:03;;;;;;;3.40;1.40;;;;;;;20.41;66.42;100232.47;1654958;85;21105;-73
2021/06/21 03:25:34;;;;;;;4.17;1.63;;;;;;;20.48;66.15;100232.73;1650519;85;21142;-73
2021/06/21 03:28:12;;;;;;;3.30;1.33;;;;;;;20.57;66.20;100235.64;1656534;85;21095;-73
2021/06/21 03:30:42;;;;;;;4.10;1.60;;;;;;;20.66;65.66;100230.69;1645439;85;21084;-73
2021/06/21 03:33:10;;;;;;;3.07;1.40;;;;;;;20.71;65.20;100235.92;1630136;85;21086;-73
2021/06/21 03:35:37;;;;;;;3.00;1.57;;;;;;;20.74;64.96;100233.91;1646440;85;21040;-72
2021/06/21 03:38:12;;;;;;;3.93;1.40;;;;;;;20.78;65.11;100237.53;1653174;85;21172;-72
2021/06/21 03:40:39;;;;;;;2.50;1.37;;;;;;;20.84;65.06;100245.14;1648258;85;21146;-73
2021/06/21 03:43:06;;;;;;;3.63;1.37;;;;;;;20.88;64.65;100237.69;1649386;85;21187;-73
2021/06/21 03:45:33;;;;;;;4.43;1.60;;;;;;;20.95;64.49;100246.08;1645327;85;21071;-72
2021/06/21 03:48:00;;;;;;;2.67;1.47;;;;;;;20.99;64.21;100251.88;1655023;85;21591;-72
2021/06/21 03:50:27;;;;;;;2.77;1.43;;;;;;;21.03;63.69;100257.44;1645752;85;21087;-73
2021/06/21 03:52:54;;;;;;;3.20;1.53;;;;;;;21.08;63.48;100251.77;1650570;85;21125;-73
2021/06/21 03:55:20;;;;;;;3.93;1.60;;;;;;;21.15;63.67;100262.88;1648213;85;21096;-73
2021/06/21 03:57:47;;;;;;;2.67;1.30;;;;;;;21.22;63.28;100258.26;1652786;85;21068;-73
2021/06/21 04:00:20;;;;;;;2.20;1.30;;;;;;;21.27;63.15;100254.77;1663258;84;21048;-73
2021/06/21 04:02:48;;;;;;;3.00;1.53;;;;;;;21.36;62.89;100258.01;1654859;85;21574;-74
2021/06/21 04:05:14;;;;;;;2.67;1.57;;;;;;;21.43;62.94;100250.09;1646995;85;21139;-72
2021/06/21 04:07:42;;;;;;;2.90;1.33;;;;;;;21.49;63.35;100240.02;1646915;85;21066;-74
2021/06/21 04:10:12;;;;;;;3.43;1.40;;;;;;;21.56;62.86;100238.10;1659620;85;21069;-72
2021/06/21 04:12:39;;;;;;;3.57;1.47;;;;;;;21.63;62.63;100245.13;1662319;85;20979;-73
2021/06/21 04:15:08;;;;;;;2.27;1.30;;;;;;;21.68;62.44;100242.73;1649488;85;21630;-72
2021/06/21 04:17:35;;;;;;;3.33;1.40;;;;;;;21.73;62.41;100234.38;1639708;85;21804;-71
2021/06/21 04:20:06;;;;;;;4.47;1.50;;;;;;;21.81;62.47;100229.38;1649072;85;21127;-73
2021/06/21 04:22:33;;;;;;;2.12;1.42;;;;;;;21.95;62.44;100239.92;1665501;85;21135;-73
2021/06/21 04:25:00;;;;;;;4.20;1.47;;;;;;;22.05;61.86;100234.02;1646801;85;21071;-73
2021/06/21 04:27:26;;;;;;;3.27;1.30;;;;;;;22.10;61.73;100234.34;1645583;85;21621;-73
2021/06/21 04:29:54;;;;;;;2.30;1.20;;;;;;;22.14;61.55;100234.66;1646031;85;21979;-73
2021/06/21 04:32:20;;;;;;;2.97;1.30;;;;;;;22.16;61.30;100232.44;1643839;85;21143;-73
2021/06/21 04:34:48;;;;;;;6.03;1.50;;;;;;;22.21;61.11;100228.13;1653729;85;21082;-73
2021/06/21 04:37:15;;;;;;;2.83;1.50;;;;;;;22.23;60.37;100240.80;1651418;85;21651;-72
2021/06/21 04:39:42;;;;;;;3.10;1.63;;;;;;;22.29;60.56;100244.09;1650957;85;21094;-72
2021/06/21 04:42:09;;;;;;;3.07;1.37;;;;;;;22.40;60.14;100234.88;1646894;85;21831;-74
2021/06/21 04:44:36;;;;;;;5.90;1.93;;;;;;;22.48;60.24;100232.59;1649420;85;21595;-72
2021/06/21 04:47:03;;;;;;;4.20;1.43;;;;;;;22.58;60.33;100233.47;1645148;85;21093;-73
2021/06/21 04:49:30;;;;;;;5.73;1.87;;;;;;;22.71;59.99;100236.94;1666138;85;21171;-73
2021/06/21 04:51:57;;;;;;;3.47;1.63;;;;;;;22.81;59.46;100234.30;1644519;85;21052;-73
2021/06/21 04:54:24;;;;;;;4.53;1.40;;;;;;;22.93;59.42;100234.25;1647131;85;21165;-74
2021/06/21 04:56:51;;;;;;;2.27;1.30;;;;;;;22.97;58.21;100231.07;1645359;85;21043;-72
2021/06/21 04:59:18;;;;;;;3.77;1.40;;;;;;;22.97;58.36;100236.52;1646214;85;21752;-73
2021/06/21 05:01:45;;;;;;;2.73;1.40;;;;;;;23.00;58.41;100225.47;1656801;85;21115;-73
2021/06/21 05:04:12;;;;;;;2.97;1.50;;;;;;;23.06;58.66;100225.44;1647259;85;21077;-73
2021/06/21 05:06:39;;;;;;;4.10;1.50;;;;;;;23.09;58.42;100228.83;1641517;85;21158;-74
2021/06/21 05:09:08;;;;;;;4.77;1.60;;;;;;;23.05;57.89;100232.83;1649471;85;21048;-73
2021/06/21 05:11:36;;;;;;;2.63;1.47;;;;;;;23.01;58.28;100227.86;1647583;84;21075;-74
2021/06/21 05:14:04;;;;;;;4.27;1.67;;;;;;;22.93;57.97;100235.06;1647954;85;21096;-74
2021/06/21 05:16:31;;;;;;;3.13;1.37;;;;;;;22.89;57.59;100227.89;1647284;85;21534;-74
2021/06/21 05:18:58;;;;;;;2.63;1.43;;;;;;;22.92;58.97;100228.55;1660778;85;21154;-72
2021/06/21 05:21:25;;;;;;;3.07;1.50;;;;;;;22.93;59.41;100232.88;1643652;85;21110;-73
2021/06/21 05:23:51;;;;;;;3.67;1.40;;;;;;;22.93;59.31;100229.62;1647083;85;21103;-72
2021/06/21 05:26:18;;;;;;;4.30;1.43;;;;;;;22.97;59.27;100224.27;1656633;85;21257;-73
2021/06/21 05:28:45;;;;;;;3.10;1.43;;;;;;;23.03;58.54;100222.84;1664398;85;21106;-72
2021/06/21 05:31:12;;;;;;;2.97;1.30;;;;;;;23.16;58.45;100222.20;1644168;85;21832;-72
2021/06/21 05:33:39;;;;;;;3.00;1.50;;;;;;;23.27;57.64;100221.92;1644007;85;21067;-73
2021/06/21 05:36:06;;;;;;;2.43;1.50;;;;;;;23.39;57.38;100220.45;1653772;85;21075;-73
2021/06/21 05:38:32;;;;;;;3.13;1.40;;;;;;;23.48;56.98;100222.23;1645231;85;21088;-72
2021/06/21 05:40:59;;;;;;;5.63;1.60;;;;;;;23.51;56.80;100227.77;1646488;85;21056;-73
2021/06/21 05:43:25;;;;;;;3.53;1.50;;;;;;;23.56;56.16;100230.24;1645648;85;21825;-73
2021/06/21 05:45:53;;;;;;;2.60;1.57;;;;;;;23.62;56.11;100230.17;1648950;85;21010;-72
2021/06/21 05:48:20;;;;;;;2.40;1.60;;;;;;;23.67;56.47;100233.22;1646031;87;21077;-73
2021/06/21 05:50:47;;;;;;;2.10;1.27;;;;;;;23.76;56.64;100234.44;1643951;85;21151;-73
2021/06/21 05:53:14;;;;;;;2.10;1.50;;;;;;;23.91;56.42;100234.18;1643171;85;21151;-72
2021/06/21 05:55:41;;;;;;;3.77;1.67;;;;;;;24.02;56.52;100230.56;1650962;85;21220;-73
2021/06/21 05:58:08;;;;;;;2.90;1.30;;;;;;;24.17;55.17;100231.66;1650765;85;21048;-72
2021/06/21 06:00:35;;;;;;;4.97;1.70;;;;;;;24.26;55.21;100234.98;1652586;85;21068;-74
2021/06/21 06:03:02;;;;;;;3.50;1.63;;;;;;;24.35;54.56;100230.69;1661438;85;21570;-72
2021/06/21 06:05:29;;;;;;;2.13;1.50;;;;;;;24.44;54.64;100228.55;1647398;85;21119;-73
2021/06/21 06:07:55;;;;;;;7.17;1.80;;;;;;;24.52;54.96;100221.31;1645198;85;21150;-73
2021/06/21 06:10:23;;;;;;;3.70;1.70;;;;;;;24.63;55.07;100221.52;1645685;85;21116;-73
2021/06/21 06:12:50;;;;;;;6.93;1.83;;;;;;;24.72;53.67;100220.73;1648446;85;21055;-73
2021/06/21 06:15:17;;;;;;;2.50;1.33;;;;;;;24.78;54.13;100217.34;1646802;85;21103;-73
2021/06/21 06:17:43;;;;;;;4.97;1.73;;;;;;;24.84;52.80;100213.72;1651820;85;21135;-73
2021/06/21 06:20:12;;;;;;;3.73;1.60;;;;;;;24.88;52.16;100213.23;1651477;85;21312;-73
2021/06/21 06:22:39;;;;;;;5.00;1.60;;;;;;;24.92;52.88;100207.25;1658453;85;21103;-72
2021/06/21 06:25:06;;;;;;;2.83;1.40;;;;;;;25.00;53.22;100210.31;1643973;85;21103;-75
2021/06/21 06:27:33;;;;;;;4.27;1.37;;;;;;;25.03;51.91;100201.98;1648927;85;21194;-74
2021/06/21 06:30:00;;;;;;;6.43;1.50;;;;;;;25.08;52.21;100200.33;1643423;85;21130;-76
2021/06/21 06:32:27;;;;;;;4.67;1.83;;;;;;;25.15;52.88;100201.84;1662516;85;21120;-72
2021/06/21 06:34:54;;;;;;;3.40;1.70;;;;;;;25.25;53.21;100203.96;1666978;85;21075;-72
2021/06/21 06:37:21;;;;;;;3.27;1.50;;;;;;;25.37;53.58;100207.09;1649227;85;21119;-73
2021/06/21 06:39:49;;;;;;;2.23;1.40;;;;;;;25.56;53.67;100204.84;1643863;85;21117;-73
2021/06/21 06:42:16;;;;;;;5.23;1.80;;;;;;;25.70;53.67;100196.09;1643666;85;21756;-72
2021/06/21 06:44:43;;;;;;;8.83;1.90;;;;;;;25.84;52.32;100192.80;1644296;85;22244;-72
2021/06/21 06:47:10;;;;;;;5.70;1.90;;;;;;;25.95;52.09;100189.03;1646347;85;21033;-72
2021/06/21 06:49:37;;;;;;;3.03;1.50;;;;;;;26.02;52.04;100179.34;1646012;85;21147;-73
2021/06/21 06:52:04;;;;;;;4.30;1.53;;;;;;;26.09;52.00;100184.91;1641224;85;21721;-71
2021/06/21 06:54:46;;;;;;;5.90;2.10;;;;;;;26.15;51.80;100181.48;1643670;85;21107;-72
2021/06/21 06:57:04;;;;;;;2.37;1.47;;;;;;;26.21;51.56;100183.31;1646766;85;22658;-73
2021/06/21 06:59:37;;;;;;;5.27;1.83;;;;;;;26.28;52.01;100177.14;1648254;85;21380;-73
2021/06/21 07:02:12;;;;;;;4.27;1.40;;;;;;;26.30;51.51;100178.94;1643681;85;21079;-72
2021/06/21 07:04:38;;;;;;;5.80;1.73;;;;;;;26.36;50.82;100176.87;1641037;85;21043;-71
2021/06/21 07:07:06;;;;;;;3.40;1.60;;;;;;;26.46;50.67;100174.62;1643586;85;21042;-71
2021/06/21 07:09:35;;;;;;;4.27;1.90;;;;;;;26.49;51.08;100176.63;1649139;85;21100;-71
2021/06/21 07:12:02;;;;;;;3.87;1.57;;;;;;;26.46;50.43;100180.11;1653262;85;21103;-71
2021/06/21 07:14:28;;;;;;;2.83;1.70;;;;;;;26.50;50.99;100165.31;1630376;85;22505;-70
2021/06/21 07:16:55;;;;;;;2.97;1.50;;;;;;;26.60;51.00;100170.70;1649546;85;21656;-71
2021/06/21 07:19:22;;;;;;;3.40;1.70;;;;;;;26.71;50.67;100166.70;1651535;85;21094;-70
2021/06/21 07:21:49;;;;;;;4.83;1.67;;;;;;;26.78;50.70;100162.06;1646367;85;21120;-70
2021/06/21 07:24:16;;;;;;;3.93;1.73;;;;;;;26.83;49.53;100156.84;1643508;85;21161;-75
2021/06/21 07:26:43;;;;;;;3.20;1.90;;;;;;;26.89;50.03;100158.09;1643609;85;21078;-74
2021/06/21 07:29:10;;;;;;;4.10;1.70;;;;;;;26.89;50.46;100160.23;1649452;85;21573;-76
2021/06/21 07:31:37;;;;;;;4.13;1.70;;;;;;;26.89;48.79;100154.75;1644614;85;21044;-75
2021/06/21 07:34:03;;;;;;;4.70;1.77;;;;;;;26.87;48.56;100156.29;1645006;85;21832;-76
2021/06/21 07:36:30;;;;;;;3.43;1.63;;;;;;;26.93;49.45;100160.27;1643627;85;21082;-77
2021/06/21 07:38:58;;;;;;;3.07;1.40;;;;;;;26.97;49.02;100154.23;1647433;85;21087;-75
2021/06/21 07:41:24;;;;;;;5.17;1.93;;;;;;;27.06;48.39;100152.55;1645493;85;21732;-76
2021/06/21 07:43:55;;;;;;;5.77;1.70;;;;;;;27.06;48.37;100156.66;1645313;85;21060;-76
2021/06/21 07:46:22;;;;;;;6.00;2.20;;;;;;;27.07;48.10;100156.86;1651024;85;21160;-75
2021/06/21 07:48:49;;;;;;;32.37;3.47;;;;;;;27.10;48.20;100162.37;1648034;85;21111;-75
2021/06/21 07:51:18;;;;;;;5.93;2.30;;;;;;;27.12;47.92;100160.64;1643610;85;21071;-76
2021/06/21 07:53:46;;;;;;;5.30;1.93;;;;;;;27.12;48.24;100166.13;1643205;85;21107;-72
2021/06/21 07:56:13;;;;;;;6.93;2.23;;;;;;;27.16;48.82;100168.33;1642832;85;21133;-69
2021/06/21 07:58:41;;;;;;;3.80;1.67;;;;;;;27.23;48.05;100165.64;1644917;85;21122;-69
2021/06/21 08:01:11;;;;;;;5.10;2.00;;;;;;;27.30;48.28;100165.70;1644977;85;21578;-71
2021/06/21 08:03:39;;;;;;;3.37;1.60;;;;;;;27.44;48.23;100168.34;1638641;85;21067;-70
2021/06/21 08:06:10;;;;;;;4.87;2.00;;;;;;;27.56;47.65;100165.30;1646654;85;21205;-71
2021/06/21 08:08:36;;;;;;;7.73;2.27;;;;;;;27.68;48.60;100164.22;1646855;85;21564;-70
2021/06/21 08:11:04;;;;;;;3.53;1.90;;;;;;;27.78;48.03;100164.89;1646160;85;21177;-70
2021/06/21 08:13:31;;;;;;;7.37;2.13;;;;;;;27.91;48.34;100158.50;1648037;85;21102;-71
2021/06/21 08:15:58;;;;;;;3.23;1.90;;;;;;;27.97;46.17;100156.93;1646725;85;21526;-69
2021/06/21 08:18:25;;;;;;;4.70;2.10;;;;;;;27.96;45.98;100160.27;1645982;85;21083;-69
2021/06/21 08:20:51;;;;;;;7.87;2.27;;;;;;;27.94;45.97;100160.47;1644315;85;21028;-70
2021/06/21 08:23:18;;;;;;;8.90;2.63;;;;;;;27.88;46.64;100161.41;1648719;85;22001;-70
2021/06/21 08:25:45;;;;;;;3.63;1.70;;;;;;;27.92;46.60;100162.21;1652839;84;21142;-70
2021/06/21 08:28:12;;;;;;;4.77;1.80;;;;;;;28.08;46.77;100156.41;1648350;85;21106;-69
2021/06/21 08:30:40;;;;;;;6.23;1.63;;;;;;;28.21;46.87;100150.78;1647602;85;21005;-69
2021/06/21 08:33:06;;;;;;;3.60;1.70;;;;;;;28.31;46.82;100154.73;1645452;85;21048;-69
2021/06/21 08:35:33;;;;;;;4.33;2.10;;;;;;;28.44;46.92;100153.83;1646821;85;21161;-72
2021/06/21 08:38:00;;;;;;;3.90;1.83;;;;;;;28.53;46.53;100154.25;1642688;85;21071;-71
2021/06/21 08:40:27;;;;;;;4.57;1.50;;;;;;;28.60;46.17;100155.64;1651567;85;21041;-69
2021/06/21 08:42:54;;;;;;;4.37;1.53;;;;;;;28.65;46.05;100155.84;1646484;85;21165;-69
2021/06/21 08:45:21;;;;;;;4.50;1.70;;;;;;;28.65;46.08;100159.36;1647023;85;21107;-69
2021/06/21 08:47:48;;;;;;;2.90;1.40;;;;;;;28.65;44.92;100155.24;1646801;86;21843;-71
2021/06/21 08:50:17;;;;;;;4.40;1.60;;;;;;;28.67;44.85;100150.75;1651881;85;21595;-70
2021/06/21 08:52:43;;;;;;;5.37;1.93;;;;;;;28.66;43.83;100154.09;1646654;85;21064;-71
2021/06/21 08:55:11;;;;;;;4.30;1.80;;;;;;;28.66;44.36;100154.09;1644592;85;21071;-70
2021/06/21 08:57:43;;;;;;;5.50;2.20;;;;;;;28.79;45.90;100155.07;1653649;85;21051;-70
2021/06/21 09:00:11;;;;;;;4.97;1.90;;;;;;;28.83;45.02;100156.66;1650196;85;21134;-70
2021/06/21 09:02:38;;;;;;;5.33;1.80;;;;;;;28.89;44.50;100157.04;1648571;85;21048;-69
2021/06/21 09:05:07;;;;;;;4.20;1.57;;;;;;;28.95;44.58;100152.73;1649007;85;21067;-70
2021/06/21 09:07:34;;;;;;;4.33;1.73;;;;;;;28.99;44.82;100149.42;1647027;85;21526;-69
2021/06/21 09:10:08;;;;;;;4.50;1.77;;;;;;;28.98;44.75;100147.23;1648780;85;21526;-71
2021/06/21 09:12:32;;;;;;;4.03;1.57;;;;;;;29.06;44.89;100159.06;1646450;85;21104;-70
2021/06/21 09:15:02;;;;;;;4.10;1.60;;;;;;;29.13;42.99;100159.66;1649101;85;21108;-71
2021/06/21 09:17:29;;;;;;;5.80;1.80;;;;;;;29.05;43.13;100167.09;1643774;85;21081;-70
2021/06/21 09:20:10;;;;;;;4.83;1.87;;;;;;;28.96;43.30;100165.32;1647146;85;21091;-69
2021/06/21 09:22:40;;;;;;;6.40;2.30;;;;;;;28.93;44.55;100166.09;1649453;85;21090;-69
2021/06/21 09:25:23;;;;;;;4.23;1.67;;;;;;;28.97;43.17;100167.66;1655278;85;22030;-70
2021/06/21 09:28:03;;;;;;;4.60;1.97;;;;;;;28.99;42.35;100167.29;1649422;84;21110;-69
2021/06/21 09:30:31;;;;;;;5.60;2.20;;;;;;;28.92;43.10;100164.51;1620728;86;21059;-70
2021/06/21 09:32:59;;;;;;;4.27;1.80;;;;;;;28.88;43.32;100167.26;1644035;86;21076;-70
2021/06/21 09:35:32;;;;;;;5.93;1.73;;;;;;;28.85;43.45;100164.50;1653371;85;21586;-70
2021/06/21 09:38:15;;;;;;;3.63;1.63;;;;;;;28.79;43.82;100168.22;1659331;85;21398;-69
2021/06/21 09:40:49;;;;;;;5.43;2.00;;;;;;;28.79;45.45;100171.56;1654538;85;21139;-70
2021/06/21 09:43:35;;;;;;;3.87;1.43;;;;;;;28.87;44.61;100171.78;1637790;85;21607;-70
2021/06/21 09:46:18;;;;;;;4.97;2.13;;;;;;;28.97;45.14;100167.66;1631902;86;21623;-70
2021/06/21 09:48:54;;;;;;;5.37;1.90;;;;;;;29.06;44.59;100174.78;1629374;86;21048;-69
2021/06/21 09:51:32;;;;;;;5.63;1.90;;;;;;;29.11;44.49;100175.16;1652343;85;21162;-69
2021/06/21 09:54:11;;;;;;;6.00;1.80;;;;;;;29.20;44.78;100170.06;1650350;85;21214;-68
2021/06/21 09:56:50;;;;;;;4.30;1.90;;;;;;;29.25;44.47;100166.71;1647739;85;21076;-69
2021/06/21 09:59:29;;;;;;;5.33;1.80;;;;;;;29.24;44.33;100171.44;1645430;85;21670;-69
2021/06/21 10:02:14;;;;;;;5.83;1.90;;;;;;;29.32;44.37;100173.02;1650141;85;21009;-68
2021/06/21 10:04:43;;;;;;;4.53;1.67;;;;;;;29.40;44.75;100163.56;1645648;85;21119;-70
2021/06/21 10:07:33;;;;;;;;;;;;;;;29.54;43.61;100168.85;1644802;85;21032;-69
2021/06/21 10:10:07;;;;;;;4.73;1.90;;;;;;;29.67;43.80;100176.92;1647608;85;20511;-70
2021/06/21 10:12:34;;;;;;;5.33;2.20;;;;;;;29.73;43.19;100173.97;1647119;85;21130;-70
2021/06/21 10:15:01;;;;;;;5.67;1.90;;;;;;;29.70;43.51;100173.97;1643790;85;21034;-69
2021/06/21 10:17:28;;;;;;;5.53;1.97;;;;;;;29.67;44.75;100172.20;1646474;85;21094;-68
2021/06/21 10:19:56;;;;;;;10.23;2.60;;;;;;;29.77;44.19;100173.95;1642946;85;21071;-69
2021/06/21 10:22:25;;;;;;;8.27;2.60;;;;;;;29.82;43.71;100170.81;1653377;85;21178;-69
2021/06/21 10:24:53;;;;;;;4.30;2.20;;;;;;;29.89;44.15;100172.16;1646157;85;21110;-69
2021/06/21 10:27:20;;;;;;;8.20;2.33;;;;;;;30.04;44.65;100182.52;1662592;85;21040;-69
2021/06/21 10:29:47;;;;;;;6.87;2.23;;;;;;;30.14;43.99;100180.31;1649332;85;21710;-69
2021/06/21 10:32:14;;;;;;;4.10;2.13;;;;;;;30.21;43.23;100180.34;1650070;85;21056;-70
2021/06/21 10:34:41;;;;;;;7.20;2.27;;;;;;;30.30;42.86;100175.16;1650614;85;21124;-68
2021/06/21 10:37:20;;;;;;;3.50;1.60;;;;;;;30.34;42.79;100182.06;1661255;85;21056;-69
2021/06/21 10:39:59;;;;;;;5.37;2.00;;;;;;;30.38;43.06;100178.69;1660849;85;27724;-69
2021/06/21 10:42:37;;;;;;;4.72;2.25;;;;;;;30.51;43.88;100172.91;1650416;85;21435;-70
2021/06/21 10:45:06;;;;;;;5.50;2.00;;;;;;;30.66;41.71;100166.70;1645632;85;21086;-71
2021/06/21 10:47:50;;;;;;;4.58;2.25;;;;;;;30.66;42.80;100174.98;1650780;85;21126;-70
2021/06/21 10:50:22;;;;;;;6.93;2.20;;;;;;;30.66;41.85;100170.06;1645529;86;21114;-69
2021/06/21 10:52:55;;;;;;;5.75;2.08;;;;;;;30.50;42.29;100171.33;1648249;85;21100;-69
2021/06/21 10:55:33;;;;;;;5.65;2.25;;;;;;;30.41;41.71;100171.59;1644727;85;21179;-70
2021/06/21 10:58:06;;;;;;;5.95;2.27;;;;;;;30.33;41.36;100169.45;1645609;85;21578;-69
2021/06/21 11:00:45;;;;;;;4.47;2.30;;;;;;;30.22;41.73;100175.62;1645429;85;21671;-71
2021/06/21 11:03:32;;;;;;;6.90;2.55;;;;;;;30.17;41.80;100172.63;1647743;85;21086;-70
2021/06/21 11:06:05;;;;;;;6.83;2.60;;;;;;;30.19;41.97;100177.79;1644524;85;21142;-70
2021/06/21 11:08:51;;;;;;;5.28;2.10;;;;;;;30.21;42.64;100181.72;1653871;85;21143;-69
2021/06/21 11:11:38;;;;;;;5.13;2.07;;;;;;;30.32;43.62;100179.70;1645633;85;21036;-70
2021/06/21 11:14:21;;;;;;;5.20;2.10;;;;;;;30.54;43.55;100176.25;1633398;85;21097;-69
2021/06/21 11:16:50;;;;;;;3.95;2.12;;;;;;;30.82;43.38;100180.03;1636990;85;21073;-70
2021/06/21 11:19:26;;;;;;;5.03;2.33;;;;;;;31.07;42.32;100182.02;1612399;87;21076;-70
2021/06/21 11:21:59;;;;;;;3.87;2.02;;;;;;;31.26;42.45;100178.51;1636483;85;21181;-70
2021/06/21 11:24:48;;;;;;;6.80;2.50;;;;;;;31.45;42.56;100179.36;1638154;85;21102;-69
2021/06/21 11:27:21;;;;;;;7.55;2.20;;;;;;;31.59;41.32;100174.89;1649654;85;21131;-70
2021/06/21 11:29:53;;;;;;;3.95;2.08;;;;;;;31.70;40.85;100180.50;1642985;85;21099;-73
2021/06/21 11:32:20;;;;;;;8.03;2.30;;;;;;;31.79;40.95;100184.16;1651846;85;21094;-72
2021/06/21 11:34:54;;;;;;;4.53;1.92;;;;;;;31.80;41.08;100177.44;1655575;85;21147;-73